European Causeway — C6RG7 — position and weather

sailwx.info

Track history (hours):
 
Tides and Currents Weather Stations Pressure Air Temp Water Temp Dewpoint Dewpoint Depression Visibility Wind Speed Wind Dir Waves Ship Positions

European Causeway

Operator: P & O Irish Sea

Last reported at 2015-May-22 11:32 UTC. Time now 2015-May-22 11:36 UTC.
Position N 54°58' W 005°01'.

Length 165 m; draft 5.5 m.

Type: Ship (hazmat cat A). MMSI: 311027000.

Date/timePositionNaut miles runAvg speedWind from/ knotsBaromVisibWave heightAir tempDewpointWater temp
2015-May-22 11:32N 54°58' W 005°01'9 9.1
2015-May-22 10:33N 54°59' W 005°16'1918.7
2015-May-22 09:33N 54°52' W 005°46'2 1.5
2015-May-22 08:32N 54°51' W 005°48'1313.3
2015-May-22 07:33N 54°57' W 005°28'1514.9
2015-May-22 06:33N 54°58' W 005°02'1 0.9
2015-May-22 05:30N 54°58' W 005°01'5 4.7
2015-May-22 04:21N 55°01' W 005°08'1619.5
2015-May-22 03:31N 54°55' W 005°34'9 9.4
2015-May-22 02:33N 54°51' W 005°48'0 0.0
2015-May-22 01:33N 54°51' W 005°48'3 3.1
2015-May-22 00:31N 54°53' W 005°43'1818.6
2015-May-21 23:33N 55°00' W 005°15'9 7.9
2015-May-21 22:27N 54°58' W 005°01'0 0.0
2015-May-21 21:33N 54°58' W 005°01'7 5.9
2015-May-21 20:25N 55°02' W 005°10'1618.0
2015-May-21 19:33N 54°54' W 005°34'8 8.5
2015-May-21 18:33N 54°51' W 005°48'0 0.0
2015-May-21 17:33N 54°51' W 005°48'1212.6
2015-May-21 16:33N 54°57' W 005°29'1515.4
2015-May-21 15:33N 54°59' W 005°02'1 1.1
2015-May-21 14:33N 54°58' W 005°01'1111.0
2015-May-21 13:33N 54°58' W 005°20'1817.6
2015-May-21 12:33N 54°51' W 005°48'0 0.1
2015-May-21 11:33N 54°51' W 005°48'1515.0
2015-May-21 10:33N 54°58' W 005°25'1413.6
2015-May-21 09:32N 54°58' W 005°01'0 0.0
2015-May-21 08:32N 54°58' W 005°01'1111.1
2015-May-21 07:33N 54°58' W 005°20'1817.7
2015-May-21 06:33N 54°51' W 005°48'0 0.1
2015-May-21 05:33N 54°51' W 005°48'7 7.2
2015-May-21 04:33N 54°55' W 005°37'1817.7
2015-May-21 03:32N 55°02' W 005°08'6 5.1
2015-May-21 02:25N 54°58' W 005°01'0 0.0
2015-May-21 01:25N 54°58' W 005°01'5 5.3
2015-May-21 00:28N 55°02' W 005°07'1617.8
2015-May-20 23:33N 54°55' W 005°33'10 8.4
2015-May-20 22:24N 54°51' W 005°48'0 0.0
2015-May-20 21:21N 54°51' W 005°48'2 2.9
2015-May-20 20:33N 54°52' W 005°45'1818.2
2015-May-20 19:33N 55°01' W 005°17'10 9.6
2015-May-20 18:33N 54°58' W 005°01'0 0.0
2015-May-20 17:32N 54°58' W 005°01'1010.0
2015-May-20 16:33N 54°59' W 005°18'1818.2
2015-May-20 15:33N 54°52' W 005°47'1 1.0
2015-May-20 14:33N 54°51' W 005°48'1313.3
2015-May-20 13:32N 54°57' W 005°27'1515.0
2015-May-20 12:33N 54°58' W 005°02'1 0.6
2015-May-20 11:32N 54°58' W 005°01'1111.2
2015-May-20 10:33N 54°58' W 005°20'1817.6
2015-May-20 09:33N 54°51' W 005°48'0 0.1
2015-May-20 08:33N 54°51' W 005°48'1616.5
2015-May-20 07:33N 54°59' W 005°23'1212.3
2015-May-20 06:33N 54°58' W 005°01'0 0.0
2015-May-20 05:33N 54°58' W 005°01'5 4.8
2015-May-20 04:32N 55°02' W 005°06'1817.9
2015-May-20 03:33N 54°54' W 005°34'9 8.7
2015-May-20 02:34N 54°51' W 005°48'0 0.0
2015-May-20 01:33N 54°51' W 005°48'3 2.7
2015-May-20 00:33N 54°53' W 005°44'1817.8
2015-May-19 23:33N 54°60' W 005°16'9 8.9
2015-May-19 22:32N 54°58' W 005°01'0 0.0
2015-May-19 21:33N 54°58' W 005°01'5 4.9
2015-May-19 20:29N 55°02' W 005°07'1617.5
2015-May-19 19:34N 54°55' W 005°33'10 9.4
2015-May-19 18:33N 54°51' W 005°48'0 0.0
2015-May-19 17:33N 54°51' W 005°48'1716.7
2015-May-19 16:33N 54°59' W 005°22'1212.0
2015-May-19 15:32N 54°58' W 005°01'0 0.0
2015-May-19 14:33N 54°58' W 005°01'1111.4
2015-May-19 13:33N 54°58' W 005°21'1717.1
2015-May-19 12:33N 54°51' W 005°48'0 0.1
2015-May-19 11:33N 54°51' W 005°48'1414.1
2015-May-19 10:33N 54°57' W 005°26'1414.1
2015-May-19 09:34N 54°58' W 005°02'0 0.4
2015-May-19 08:34N 54°58' W 005°01'1212.3
2015-May-19 07:33N 54°57' W 005°22'1615.9
2015-May-19 06:33N 54°51' W 005°48'0 0.0
2015-May-19 05:33N 54°51' W 005°48'4 3.7
2015-May-19 04:33N 54°53' W 005°43'1918.4
2015-May-19 03:31N 55°01' W 005°13'7 6.6
2015-May-19 02:23N 54°58' W 005°01'0 0.0
2015-May-19 01:26N 54°58' W 005°01'6 7.0
2015-May-19 00:33N 55°01' W 005°10'2020.4
2015-May-18 23:33N 54°54' W 005°43'4 4.0
2015-May-18 22:31N 54°51' W 005°48'0 0.0
2015-May-18 21:28N 54°51' W 005°48'5 5.7
2015-May-18 20:33N 54°54' W 005°40'1717.6
2015-May-18 19:33N 55°01' W 005°13'7 7.1
2015-May-18 18:30N 54°58' W 005°01'0 0.0
2015-May-18 17:33N 54°58' W 005°01'1111.4
2015-May-18 16:33N 54°58' W 005°21'1717.2
2015-May-18 15:33N 54°51' W 005°48'0 0.1
2015-May-18 14:33N 54°51' W 005°48'1313.1
2015-May-18 13:33N 54°58' W 005°28'1515.2
2015-May-18 12:33N 54°58' W 005°02'1 0.9
2015-May-18 11:34N 54°58' W 005°01'1212.4
2015-May-18 10:34N 54°58' W 005°23'1616.1
2015-May-18 09:33N 54°51' W 005°48'0 0.1
2015-May-18 08:29N 54°51' W 005°48'0 0.0
2015-May-18 07:29N 54°51' W 005°48'3 2.8
2015-May-18 06:30N 54°52' W 005°44'1010.2
2015-May-18 05:33N 54°46' W 005°30'1312.9
2015-May-18 04:33N 54°35' W 005°20'1514.6
2015-May-18 03:33N 54°21' W 005°10'1515.1
2015-May-18 02:33N 54°07' W 005°02'3917.3
2015-May-18 00:19N 53°43' W 004°10'1519.4
2015-May-17 23:33N 53°36' W 003°48'1918.7
2015-May-17 22:33N 53°32' W 003°18'1111.4
2015-May-17 21:33N 53°26' W 003°01'3 2.9
2015-May-17 20:34N 53°23' W 003°01'0 0.0
2015-May-17 19:34N 53°23' W 003°01'0 0.0
2015-May-17 18:34N 53°23' W 003°01'0 0.0
2015-May-17 17:34N 53°23' W 003°01'0 0.0
2015-May-17 16:34N 53°23' W 003°01'0 0.0
2015-May-17 15:33N 53°23' W 003°01'0 0.0
2015-May-17 14:34N 53°23' W 003°01'0 0.0
2015-May-17 13:34N 53°23' W 003°01'0 0.0
2015-May-17 12:33N 53°23' W 003°01'0 0.0
2015-May-17 11:34N 53°23' W 003°01'0 0.1
2015-May-17 10:34N 53°23' W 003°01'0 0.0
2015-May-17 09:33N 53°23' W 003°01'0 0.0
2015-May-17 08:33N 53°23' W 003°01'0 0.0
2015-May-17 07:34N 53°23' W 003°01'0 0.0
2015-May-17 06:33N 53°23' W 003°01'0 0.0
2015-May-17 05:34N 53°23' W 003°01'0 0.0
2015-May-17 04:34N 53°23' W 003°01'0 0.0
2015-May-17 03:33N 53°23' W 003°01'0 0.0
2015-May-17 02:33N 53°23' W 003°01'0 0.0
2015-May-17 01:34N 53°23' W 003°01'0 0.0
2015-May-17 00:34N 53°23' W 003°01'0 0.0
2015-May-16 23:33N 53°23' W 003°01'0 0.0
2015-May-16 22:33N 53°23' W 003°01'0 0.0
2015-May-16 21:34N 53°23' W 003°01'0 0.0
2015-May-16 20:34N 53°23' W 003°01'0 0.0
2015-May-16 19:34N 53°23' W 003°01'0 0.0
2015-May-16 18:34N 53°23' W 003°01'0 0.0
2015-May-16 17:34N 53°23' W 003°01'0 0.0
2015-May-16 16:33N 53°23' W 003°01'0 0.0
2015-May-16 15:33N 53°23' W 003°01'0 0.0
2015-May-16 14:33N 53°23' W 003°01'0 0.0
2015-May-16 13:34N 53°23' W 003°01'0 0.0
2015-May-16 12:34N 53°23' W 003°01'0 0.0
2015-May-16 11:33N 53°23' W 003°01'0 0.0
2015-May-16 10:34N 53°23' W 003°01'0 0.0
2015-May-16 09:33N 53°23' W 003°01'0 0.0
2015-May-16 08:34N 53°23' W 003°01'0 0.0
2015-May-16 07:34N 53°23' W 003°01'0 0.0
2015-May-16 06:34N 53°23' W 003°01'0 0.0
2015-May-16 05:33N 53°23' W 003°01'0 0.0
2015-May-16 04:34N 53°23' W 003°01'0 0.0
2015-May-16 03:34N 53°23' W 003°01'0 0.0
2015-May-16 02:33N 53°23' W 003°01'0 0.0
2015-May-16 01:34N 53°23' W 003°01'0 0.0
2015-May-16 00:34N 53°23' W 003°01'0 0.0
2015-May-15 23:34N 53°23' W 003°01'0 0.0
2015-May-15 22:33N 53°23' W 003°01'0 0.0
2015-May-15 21:34N 53°23' W 003°01'0 0.0
2015-May-15 20:33N 53°23' W 003°01'0 0.0
2015-May-15 19:33N 53°23' W 003°01'0 0.0
2015-May-15 18:34N 53°23' W 003°01'0 0.0
2015-May-15 17:33N 53°23' W 003°01'0 0.0
2015-May-15 16:33N 53°23' W 003°01'0 0.0
2015-May-15 15:33N 53°23' W 003°01'0 0.0
2015-May-15 14:34N 53°23' W 003°01'0 0.0
2015-May-15 13:34N 53°23' W 003°01'0 0.0
2015-May-15 12:33N 53°23' W 003°01'0 0.0
2015-May-15 11:34N 53°23' W 003°01'0 0.0
2015-May-15 10:34N 53°23' W 003°01'0 0.0
2015-May-15 09:34N 53°23' W 003°01'0 0.0
2015-May-15 08:33N 53°23' W 003°01'0 0.0
2015-May-15 07:34N 53°23' W 003°01'0 0.0
2015-May-15 06:33N 53°23' W 003°01'0 0.0
2015-May-15 05:34N 53°23' W 003°01'0 0.0
2015-May-15 04:34N 53°23' W 003°01'0 0.0
2015-May-15 03:34N 53°23' W 003°01'0 0.0
2015-May-15 02:34N 53°23' W 003°01'0 0.0
2015-May-15 01:34N 53°23' W 003°01'0 0.0
2015-May-15 00:34N 53°23' W 003°01'0 0.0
2015-May-14 23:34N 53°23' W 003°01'0 0.0
2015-May-14 22:34N 53°23' W 003°01'0 0.0
2015-May-14 21:34N 53°23' W 003°01'0 0.0
2015-May-14 20:34N 53°23' W 003°01'0 0.0
2015-May-14 19:34N 53°23' W 003°01'0 0.0
2015-May-14 18:33N 53°23' W 003°01'0 0.0
2015-May-14 17:33N 53°23' W 003°01'0 0.0
2015-May-14 16:33N 53°23' W 003°01'0 0.0
2015-May-14 15:33N 53°23' W 003°01'0 0.0
2015-May-14 14:34N 53°23' W 003°01'0 0.0
2015-May-14 13:34N 53°23' W 003°01'0 0.0
2015-May-14 12:34N 53°23' W 003°01'0 0.0
2015-May-14 11:34N 53°23' W 003°01'0 0.0
2015-May-14 10:33N 53°23' W 003°01'0 0.0
2015-May-14 09:33N 53°23' W 003°01'0 0.0
2015-May-14 08:33N 53°23' W 003°01'0 0.0
2015-May-14 07:33N 53°23' W 003°01'0 0.0
2015-May-14 06:34N 53°23' W 003°01'0 0.0
2015-May-14 05:34N 53°23' W 003°01'0 0.0
2015-May-14 04:33N 53°23' W 003°01'0 0.0
2015-May-14 03:34N 53°23' W 003°01'0 0.0
2015-May-14 02:33N 53°23' W 003°01'0 0.0
2015-May-14 01:33N 53°23' W 003°01'0 0.0
2015-May-14 00:34N 53°23' W 003°01'0 0.0
2015-May-13 23:34N 53°23' W 003°01'0 0.0
2015-May-13 22:34N 53°23' W 003°01'0 0.0
2015-May-13 21:33N 53°23' W 003°01'0 0.0
2015-May-13 20:34N 53°23' W 003°01'0 0.0
2015-May-13 19:34N 53°23' W 003°01'0 0.0
2015-May-13 18:34N 53°23' W 003°01'0 0.0
2015-May-13 17:34N 53°23' W 003°01'0 0.0
2015-May-13 16:34N 53°23' W 003°01'0 0.0
2015-May-13 15:34N 53°23' W 003°01'0 0.0
2015-May-13 14:34N 53°23' W 003°01'0 0.0
2015-May-13 13:33N 53°23' W 003°01'0 0.0
2015-May-13 12:33N 53°23' W 003°01'0 0.0
2015-May-13 11:33N 53°23' W 003°01'0 0.0
2015-May-13 10:34N 53°23' W 003°01'0 0.0
2015-May-13 09:34N 53°23' W 003°01'0 0.0
2015-May-13 08:34N 53°23' W 003°01'0 0.0
2015-May-13 07:34N 53°23' W 003°01'0 0.0
2015-May-13 06:34N 53°23' W 003°01'0 0.0
2015-May-13 05:34N 53°23' W 003°01'0 0.0
2015-May-13 04:33N 53°23' W 003°01'0 0.0
2015-May-13 03:33N 53°23' W 003°01'0 0.0
2015-May-13 02:34N 53°23' W 003°01'0 0.0
2015-May-13 01:33N 53°23' W 003°01'0 0.0
2015-May-13 00:34N 53°23' W 003°01'0 0.0
2015-May-12 23:34N 53°23' W 003°01'0 0.0
2015-May-12 22:34N 53°23' W 003°01'0 0.0
2015-May-12 21:34N 53°23' W 003°01'0 0.0
2015-May-12 20:33N 53°23' W 003°01'0 0.0
2015-May-12 19:33N 53°23' W 003°01'0 0.0
2015-May-12 18:33N 53°23' W 003°01'0 0.0
2015-May-12 17:34N 53°23' W 003°01'0 0.0
2015-May-12 16:33N 53°23' W 003°01'0 0.0
2015-May-12 15:33N 53°23' W 003°01'0 0.0
2015-May-12 14:33N 53°23' W 003°01'0 0.0
2015-May-12 13:33N 53°23' W 003°01'0 0.0
2015-May-12 12:33N 53°23' W 003°01'0 0.0
2015-May-12 11:33N 53°23' W 003°01'  
Track history (hours):
 
Tides and Currents Weather Stations Pressure Air Temp Water Temp Dewpoint Dewpoint Depression Visibility Wind Speed Wind Dir Waves Ship Positions

European Causeway

Operator: P & O Irish Sea

Last reported at 2015-May-22 11:32 UTC. Time now 2015-May-22 11:36 UTC.
Position N 54°58' W 005°01'.

Length 165 m; draft 5.5 m.

Type: Ship (hazmat cat A). MMSI: 311027000.

Date/timePositionNaut miles runAvg speedWind from/ knotsBaromVisibWave heightAir tempDewpointWater temp
2015-May-22 11:32N 54°58' W 005°01'9 9.1
2015-May-22 10:33N 54°59' W 005°16'1918.7
2015-May-22 09:33N 54°52' W 005°46'2 1.5
2015-May-22 08:32N 54°51' W 005°48'1313.3
2015-May-22 07:33N 54°57' W 005°28'1514.9
2015-May-22 06:33N 54°58' W 005°02'1 0.9
2015-May-22 05:30N 54°58' W 005°01'5 4.7
2015-May-22 04:21N 55°01' W 005°08'1619.5
2015-May-22 03:31N 54°55' W 005°34'9 9.4
2015-May-22 02:33N 54°51' W 005°48'0 0.0
2015-May-22 01:33N 54°51' W 005°48'3 3.1
2015-May-22 00:31N 54°53' W 005°43'1818.6
2015-May-21 23:33N 55°00' W 005°15'9 7.9
2015-May-21 22:27N 54°58' W 005°01'0 0.0
2015-May-21 21:33N 54°58' W 005°01'7 5.9
2015-May-21 20:25N 55°02' W 005°10'1618.0
2015-May-21 19:33N 54°54' W 005°34'8 8.5
2015-May-21 18:33N 54°51' W 005°48'0 0.0
2015-May-21 17:33N 54°51' W 005°48'1212.6
2015-May-21 16:33N 54°57' W 005°29'1515.4
2015-May-21 15:33N 54°59' W 005°02'1 1.1
2015-May-21 14:33N 54°58' W 005°01'1111.0
2015-May-21 13:33N 54°58' W 005°20'1817.6
2015-May-21 12:33N 54°51' W 005°48'0 0.1
2015-May-21 11:33N 54°51' W 005°48'1515.0
2015-May-21 10:33N 54°58' W 005°25'1413.6
2015-May-21 09:32N 54°58' W 005°01'0 0.0
2015-May-21 08:32N 54°58' W 005°01'1111.1
2015-May-21 07:33N 54°58' W 005°20'1817.7
2015-May-21 06:33N 54°51' W 005°48'0 0.1
2015-May-21 05:33N 54°51' W 005°48'7 7.2
2015-May-21 04:33N 54°55' W 005°37'1817.7
2015-May-21 03:32N 55°02' W 005°08'6 5.1
2015-May-21 02:25N 54°58' W 005°01'0 0.0
2015-May-21 01:25N 54°58' W 005°01'5 5.3
2015-May-21 00:28N 55°02' W 005°07'1617.8
2015-May-20 23:33N 54°55' W 005°33'10 8.4
2015-May-20 22:24N 54°51' W 005°48'0 0.0
2015-May-20 21:21N 54°51' W 005°48'2 2.9
2015-May-20 20:33N 54°52' W 005°45'1818.2
2015-May-20 19:33N 55°01' W 005°17'10 9.6
2015-May-20 18:33N 54°58' W 005°01'0 0.0
2015-May-20 17:32N 54°58' W 005°01'1010.0
2015-May-20 16:33N 54°59' W 005°18'1818.2
2015-May-20 15:33N 54°52' W 005°47'1 1.0
2015-May-20 14:33N 54°51' W 005°48'1313.3
2015-May-20 13:32N 54°57' W 005°27'1515.0
2015-May-20 12:33N 54°58' W 005°02'1 0.6
2015-May-20 11:32N 54°58' W 005°01'1111.2
2015-May-20 10:33N 54°58' W 005°20'1817.6
2015-May-20 09:33N 54°51' W 005°48'0 0.1
2015-May-20 08:33N 54°51' W 005°48'1616.5
2015-May-20 07:33N 54°59' W 005°23'1212.3
2015-May-20 06:33N 54°58' W 005°01'0 0.0
2015-May-20 05:33N 54°58' W 005°01'5 4.8
2015-May-20 04:32N 55°02' W 005°06'1817.9
2015-May-20 03:33N 54°54' W 005°34'9 8.7
2015-May-20 02:34N 54°51' W 005°48'0 0.0
2015-May-20 01:33N 54°51' W 005°48'3 2.7
2015-May-20 00:33N 54°53' W 005°44'1817.8
2015-May-19 23:33N 54°60' W 005°16'9 8.9
2015-May-19 22:32N 54°58' W 005°01'0 0.0
2015-May-19 21:33N 54°58' W 005°01'5 4.9
2015-May-19 20:29N 55°02' W 005°07'1617.5
2015-May-19 19:34N 54°55' W 005°33'10 9.4
2015-May-19 18:33N 54°51' W 005°48'0 0.0
2015-May-19 17:33N 54°51' W 005°48'1716.7
2015-May-19 16:33N 54°59' W 005°22'1212.0
2015-May-19 15:32N 54°58' W 005°01'0 0.0
2015-May-19 14:33N 54°58' W 005°01'1111.4
2015-May-19 13:33N 54°58' W 005°21'1717.1
2015-May-19 12:33N 54°51' W 005°48'0 0.1
2015-May-19 11:33N 54°51' W 005°48'1414.1
2015-May-19 10:33N 54°57' W 005°26'1414.1
2015-May-19 09:34N 54°58' W 005°02'0 0.4
2015-May-19 08:34N 54°58' W 005°01'1212.3
2015-May-19 07:33N 54°57' W 005°22'1615.9
2015-May-19 06:33N 54°51' W 005°48'0 0.0
2015-May-19 05:33N 54°51' W 005°48'4 3.7
2015-May-19 04:33N 54°53' W 005°43'1918.4
2015-May-19 03:31N 55°01' W 005°13'7 6.6
2015-May-19 02:23N 54°58' W 005°01'0 0.0
2015-May-19 01:26N 54°58' W 005°01'6 7.0
2015-May-19 00:33N 55°01' W 005°10'2020.4
2015-May-18 23:33N 54°54' W 005°43'4 4.0
2015-May-18 22:31N 54°51' W 005°48'0 0.0
2015-May-18 21:28N 54°51' W 005°48'5 5.7
2015-May-18 20:33N 54°54' W 005°40'1717.6
2015-May-18 19:33N 55°01' W 005°13'7 7.1
2015-May-18 18:30N 54°58' W 005°01'0 0.0
2015-May-18 17:33N 54°58' W 005°01'1111.4
2015-May-18 16:33N 54°58' W 005°21'1717.2
2015-May-18 15:33N 54°51' W 005°48'0 0.1
2015-May-18 14:33N 54°51' W 005°48'1313.1
2015-May-18 13:33N 54°58' W 005°28'1515.2
2015-May-18 12:33N 54°58' W 005°02'1 0.9
2015-May-18 11:34N 54°58' W 005°01'1212.4
2015-May-18 10:34N 54°58' W 005°23'1616.1
2015-May-18 09:33N 54°51' W 005°48'0 0.1
2015-May-18 08:29N 54°51' W 005°48'0 0.0
2015-May-18 07:29N 54°51' W 005°48'3 2.8
2015-May-18 06:30N 54°52' W 005°44'1010.2
2015-May-18 05:33N 54°46' W 005°30'1312.9
2015-May-18 04:33N 54°35' W 005°20'1514.6
2015-May-18 03:33N 54°21' W 005°10'1515.1
2015-May-18 02:33N 54°07' W 005°02'3917.3
2015-May-18 00:19N 53°43' W 004°10'1519.4
2015-May-17 23:33N 53°36' W 003°48'1918.7
2015-May-17 22:33N 53°32' W 003°18'1111.4
2015-May-17 21:33N 53°26' W 003°01'3 2.9
2015-May-17 20:34N 53°23' W 003°01'0 0.0
2015-May-17 19:34N 53°23' W 003°01'0 0.0
2015-May-17 18:34N 53°23' W 003°01'0 0.0
2015-May-17 17:34N 53°23' W 003°01'0 0.0
2015-May-17 16:34N 53°23' W 003°01'0 0.0
2015-May-17 15:33N 53°23' W 003°01'0 0.0
2015-May-17 14:34N 53°23' W 003°01'0 0.0
2015-May-17 13:34N 53°23' W 003°01'0 0.0
2015-May-17 12:33N 53°23' W 003°01'0 0.0
2015-May-17 11:34N 53°23' W 003°01'0 0.1
2015-May-17 10:34N 53°23' W 003°01'0 0.0
2015-May-17 09:33N 53°23' W 003°01'0 0.0
2015-May-17 08:33N 53°23' W 003°01'0 0.0
2015-May-17 07:34N 53°23' W 003°01'0 0.0
2015-May-17 06:33N 53°23' W 003°01'0 0.0
2015-May-17 05:34N 53°23' W 003°01'0 0.0
2015-May-17 04:34N 53°23' W 003°01'0 0.0
2015-May-17 03:33N 53°23' W 003°01'0 0.0
2015-May-17 02:33N 53°23' W 003°01'0 0.0
2015-May-17 01:34N 53°23' W 003°01'0 0.0
2015-May-17 00:34N 53°23' W 003°01'0 0.0
2015-May-16 23:33N 53°23' W 003°01'0 0.0
2015-May-16 22:33N 53°23' W 003°01'0 0.0
2015-May-16 21:34N 53°23' W 003°01'0 0.0
2015-May-16 20:34N 53°23' W 003°01'0 0.0
2015-May-16 19:34N 53°23' W 003°01'0 0.0
2015-May-16 18:34N 53°23' W 003°01'0 0.0
2015-May-16 17:34N 53°23' W 003°01'0 0.0
2015-May-16 16:33N 53°23' W 003°01'0 0.0
2015-May-16 15:33N 53°23' W 003°01'0 0.0
2015-May-16 14:33N 53°23' W 003°01'0 0.0
2015-May-16 13:34N 53°23' W 003°01'0 0.0
2015-May-16 12:34N 53°23' W 003°01'0 0.0
2015-May-16 11:33N 53°23' W 003°01'0 0.0
2015-May-16 10:34N 53°23' W 003°01'0 0.0
2015-May-16 09:33N 53°23' W 003°01'0 0.0
2015-May-16 08:34N 53°23' W 003°01'0 0.0
2015-May-16 07:34N 53°23' W 003°01'0 0.0
2015-May-16 06:34N 53°23' W 003°01'0 0.0
2015-May-16 05:33N 53°23' W 003°01'0 0.0
2015-May-16 04:34N 53°23' W 003°01'0 0.0
2015-May-16 03:34N 53°23' W 003°01'0 0.0
2015-May-16 02:33N 53°23' W 003°01'0 0.0
2015-May-16 01:34N 53°23' W 003°01'0 0.0
2015-May-16 00:34N 53°23' W 003°01'0 0.0
2015-May-15 23:34N 53°23' W 003°01'0 0.0
2015-May-15 22:33N 53°23' W 003°01'0 0.0
2015-May-15 21:34N 53°23' W 003°01'0 0.0
2015-May-15 20:33N 53°23' W 003°01'0 0.0
2015-May-15 19:33N 53°23' W 003°01'0 0.0
2015-May-15 18:34N 53°23' W 003°01'0 0.0
2015-May-15 17:33N 53°23' W 003°01'0 0.0
2015-May-15 16:33N 53°23' W 003°01'0 0.0
2015-May-15 15:33N 53°23' W 003°01'0 0.0
2015-May-15 14:34N 53°23' W 003°01'0 0.0
2015-May-15 13:34N 53°23' W 003°01'0 0.0
2015-May-15 12:33N 53°23' W 003°01'0 0.0
2015-May-15 11:34N 53°23' W 003°01'0 0.0
2015-May-15 10:34N 53°23' W 003°01'0 0.0
2015-May-15 09:34N 53°23' W 003°01'0 0.0
2015-May-15 08:33N 53°23' W 003°01'0 0.0
2015-May-15 07:34N 53°23' W 003°01'0 0.0
2015-May-15 06:33N 53°23' W 003°01'0 0.0
2015-May-15 05:34N 53°23' W 003°01'0 0.0
2015-May-15 04:34N 53°23' W 003°01'0 0.0
2015-May-15 03:34N 53°23' W 003°01'0 0.0
2015-May-15 02:34N 53°23' W 003°01'0 0.0
2015-May-15 01:34N 53°23' W 003°01'0 0.0
2015-May-15 00:34N 53°23' W 003°01'0 0.0
2015-May-14 23:34N 53°23' W 003°01'0 0.0
2015-May-14 22:34N 53°23' W 003°01'0 0.0
2015-May-14 21:34N 53°23' W 003°01'0 0.0
2015-May-14 20:34N 53°23' W 003°01'0 0.0
2015-May-14 19:34N 53°23' W 003°01'0 0.0
2015-May-14 18:33N 53°23' W 003°01'0 0.0
2015-May-14 17:33N 53°23' W 003°01'0 0.0
2015-May-14 16:33N 53°23' W 003°01'0 0.0
2015-May-14 15:33N 53°23' W 003°01'0 0.0
2015-May-14 14:34N 53°23' W 003°01'0 0.0
2015-May-14 13:34N 53°23' W 003°01'0 0.0
2015-May-14 12:34N 53°23' W 003°01'0 0.0
2015-May-14 11:34N 53°23' W 003°01'0 0.0
2015-May-14 10:33N 53°23' W 003°01'0 0.0
2015-May-14 09:33N 53°23' W 003°01'0 0.0
2015-May-14 08:33N 53°23' W 003°01'0 0.0
2015-May-14 07:33N 53°23' W 003°01'0 0.0
2015-May-14 06:34N 53°23' W 003°01'0 0.0
2015-May-14 05:34N 53°23' W 003°01'0 0.0
2015-May-14 04:33N 53°23' W 003°01'0 0.0
2015-May-14 03:34N 53°23' W 003°01'0 0.0
2015-May-14 02:33N 53°23' W 003°01'0 0.0
2015-May-14 01:33N 53°23' W 003°01'0 0.0
2015-May-14 00:34N 53°23' W 003°01'0 0.0
2015-May-13 23:34N 53°23' W 003°01'0 0.0
2015-May-13 22:34N 53°23' W 003°01'0 0.0
2015-May-13 21:33N 53°23' W 003°01'0 0.0
2015-May-13 20:34N 53°23' W 003°01'0 0.0
2015-May-13 19:34N 53°23' W 003°01'0 0.0
2015-May-13 18:34N 53°23' W 003°01'0 0.0
2015-May-13 17:34N 53°23' W 003°01'0 0.0
2015-May-13 16:34N 53°23' W 003°01'0 0.0
2015-May-13 15:34N 53°23' W 003°01'0 0.0
2015-May-13 14:34N 53°23' W 003°01'0 0.0
2015-May-13 13:33N 53°23' W 003°01'0 0.0
2015-May-13 12:33N 53°23' W 003°01'0 0.0
2015-May-13 11:33N 53°23' W 003°01'0 0.0
2015-May-13 10:34N 53°23' W 003°01'0 0.0
2015-May-13 09:34N 53°23' W 003°01'0 0.0
2015-May-13 08:34N 53°23' W 003°01'0 0.0
2015-May-13 07:34N 53°23' W 003°01'0 0.0
2015-May-13 06:34N 53°23' W 003°01'0 0.0
2015-May-13 05:34N 53°23' W 003°01'0 0.0
2015-May-13 04:33N 53°23' W 003°01'0 0.0
2015-May-13 03:33N 53°23' W 003°01'0 0.0
2015-May-13 02:34N 53°23' W 003°01'0 0.0
2015-May-13 01:33N 53°23' W 003°01'0 0.0
2015-May-13 00:34N 53°23' W 003°01'0 0.0
2015-May-12 23:34N 53°23' W 003°01'0 0.0
2015-May-12 22:34N 53°23' W 003°01'0 0.0
2015-May-12 21:34N 53°23' W 003°01'0 0.0
2015-May-12 20:33N 53°23' W 003°01'0 0.0
2015-May-12 19:33N 53°23' W 003°01'0 0.0
2015-May-12 18:33N 53°23' W 003°01'0 0.0
2015-May-12 17:34N 53°23' W 003°01'0 0.0
2015-May-12 16:33N 53°23' W 003°01'0 0.0
2015-May-12 15:33N 53°23' W 003°01'0 0.0
2015-May-12 14:33N 53°23' W 003°01'0 0.0
2015-May-12 13:33N 53°23' W 003°01'0 0.0
2015-May-12 12:33N 53°23' W 003°01'0 0.0
2015-May-12 11:33N 53°23' W 003°01'  

Dump ship's entire track history